createdAt,value
2023-04-30T00:03:19.430Z,58.97
2023-04-30T00:08:23.756Z,58.38
2023-04-30T00:13:27.544Z,57.29
2023-04-30T00:18:31.590Z,56.42
2023-04-30T00:23:35.568Z,55.94
2023-04-30T00:28:39.920Z,55.08
2023-04-30T00:33:44.182Z,54.21
2023-04-30T00:38:48.101Z,53.75
2023-04-30T00:43:52.195Z,53.08
2023-04-30T00:48:56.349Z,52.45
2023-04-30T00:54:04.251Z,51.94
2023-04-30T00:59:08.196Z,51.27
2023-04-30T01:04:13.075Z,50.46
2023-04-30T01:09:17.186Z,49.69
2023-04-30T01:14:42.512Z,49.32
2023-04-30T01:19:47.357Z,48.62
2023-04-30T01:25:20.050Z,47.97
2023-04-30T01:30:26.239Z,47.62
2023-04-30T01:35:53.807Z,46.58
2023-04-30T01:41:00.796Z,46.58
2023-04-30T01:46:23.214Z,46.16
2023-04-30T01:51:40.862Z,45.90
2023-04-30T01:57:03.702Z,45.98
2023-04-30T02:02:08.136Z,46.40
2023-04-30T02:07:14.304Z,45.48
2023-04-30T02:12:18.239Z,45.47
2023-04-30T02:17:22.584Z,46.45
2023-04-30T02:22:27.165Z,45.19
2023-04-30T02:27:32.736Z,45.07
2023-04-30T02:32:37.309Z,46.21
2023-04-30T02:37:41.694Z,45.99
2023-04-30T02:42:45.815Z,45.83
2023-04-30T02:47:49.757Z,45.63
2023-04-30T02:52:54.049Z,45.47
2023-04-30T02:57:58.046Z,45.59
2023-04-30T03:03:02.239Z,45.58
2023-04-30T03:08:06.634Z,46.79
2023-04-30T03:13:10.516Z,47.35
2023-04-30T03:18:14.807Z,46.75
2023-04-30T03:23:18.794Z,47.19
2023-04-30T03:28:22.938Z,47.49
2023-04-30T03:33:27.266Z,46.88
2023-04-30T03:38:31.639Z,46.95
2023-04-30T03:43:35.661Z,46.96
2023-04-30T03:48:39.599Z,46.90
2023-04-30T03:53:43.657Z,47.02
2023-04-30T03:58:47.962Z,46.33
2023-04-30T04:03:52.121Z,46.57
2023-04-30T04:08:56.343Z,46.61
2023-04-30T04:14:00.169Z,46.15
2023-04-30T04:19:05.258Z,46.45
2023-04-30T04:24:10.231Z,46.81
2023-04-30T04:29:14.166Z,46.15
2023-04-30T04:34:20.569Z,46.67
2023-04-30T04:39:24.746Z,47.08
2023-04-30T04:44:29.573Z,46.95
2023-04-30T04:49:33.720Z,47.32
2023-04-30T04:54:37.796Z,46.81
2023-04-30T04:59:41.887Z,46.46
2023-04-30T05:04:48.049Z,46.58
2023-04-30T05:09:52.069Z,46.07
2023-04-30T05:14:56.254Z,45.80
2023-04-30T05:20:00.669Z,46.19
2023-04-30T05:25:06.040Z,46.46
2023-04-30T05:30:10.618Z,46.30
2023-04-30T05:35:14.640Z,46.38
2023-04-30T05:40:19.021Z,46.96
2023-04-30T05:45:23.756Z,46.64
2023-04-30T05:50:27.881Z,46.25
2023-04-30T05:55:32.472Z,45.94
2023-04-30T06:00:36.764Z,45.88
2023-04-30T06:05:42.149Z,46.14
2023-04-30T06:10:46.463Z,46.50
2023-04-30T06:15:50.426Z,45.77
2023-04-30T06:20:54.589Z,45.95
2023-04-30T06:25:58.613Z,45.07
2023-04-30T06:31:02.687Z,44.91
2023-04-30T06:36:07.179Z,44.35
2023-04-30T06:41:11.237Z,44.46
2023-04-30T06:46:16.316Z,44.37
2023-04-30T06:51:20.164Z,43.27
2023-04-30T06:56:24.224Z,42.78
2023-04-30T07:01:28.360Z,43.03
2023-04-30T07:06:32.255Z,44.07
2023-04-30T07:11:36.548Z,43.89
2023-04-30T07:16:40.308Z,43.85
2023-04-30T07:21:45.206Z,43.48
2023-04-30T07:26:49.311Z,44.00
2023-04-30T07:31:53.716Z,44.19
2023-04-30T07:36:57.758Z,44.63
2023-04-30T07:42:04.075Z,44.52
2023-04-30T07:47:08.420Z,44.21
2023-04-30T07:52:13.084Z,43.42
2023-04-30T07:57:17.140Z,43.82
2023-04-30T08:02:21.776Z,44.37
2023-04-30T08:07:26.272Z,44.56
2023-04-30T08:12:30.281Z,44.75
2023-04-30T08:17:35.754Z,45.33
2023-04-30T08:22:40.344Z,45.33
2023-04-30T08:27:44.725Z,45.26
2023-04-30T08:32:50.242Z,45.72
2023-04-30T08:37:54.887Z,45.77
2023-04-30T08:43:06.991Z,45.95
2023-04-30T08:48:17.091Z,45.42
2023-04-30T08:53:22.433Z,45.74
2023-04-30T08:58:26.504Z,45.57
2023-04-30T09:03:33.473Z,45.83
2023-04-30T09:08:48.703Z,45.32
2023-04-30T09:13:54.335Z,45.09
2023-04-30T09:18:58.460Z,44.70
2023-04-30T09:24:05.964Z,44.98
2023-04-30T09:29:10.916Z,45.18
2023-04-30T09:34:15.919Z,44.89
2023-04-30T09:39:19.857Z,45.62
2023-04-30T09:44:32.723Z,45.27
2023-04-30T09:49:38.957Z,45.21
2023-04-30T09:54:45.929Z,45.40
2023-04-30T09:59:53.459Z,45.57
2023-04-30T10:05:00.191Z,44.84
2023-04-30T10:10:12.062Z,45.48
2023-04-30T10:15:21.483Z,45.03
2023-04-30T10:20:27.884Z,45.20
2023-04-30T10:25:33.936Z,45.59
2023-04-30T10:30:39.270Z,45.66
2023-04-30T10:36:09.960Z,46.51
2023-04-30T10:41:13.887Z,46.29
2023-04-30T10:46:24.992Z,46.64
2023-04-30T10:51:50.548Z,45.79
2023-04-30T10:56:57.337Z,46.20
2023-04-30T11:02:03.025Z,46.27
2023-04-30T11:07:11.357Z,45.98
2023-04-30T11:12:21.839Z,45.80
2023-04-30T11:17:28.381Z,46.26
2023-04-30T11:22:36.835Z,46.28
2023-04-30T11:27:45.927Z,46.76
2023-04-30T11:32:51.381Z,47.11
2023-04-30T11:37:58.443Z,47.19
2023-04-30T11:43:02.363Z,47.73
2023-04-30T11:48:06.667Z,47.63
2023-04-30T11:53:11.278Z,47.92
2023-04-30T11:58:16.356Z,48.10
2023-04-30T12:03:20.640Z,48.68
2023-04-30T12:08:25.023Z,48.95
2023-04-30T12:13:32.041Z,48.74
2023-04-30T12:18:36.111Z,48.87
2023-04-30T12:23:40.209Z,49.26
2023-04-30T12:28:44.237Z,49.48
2023-04-30T12:33:56.534Z,49.03
2023-04-30T12:39:08.614Z,49.53
2023-04-30T12:44:18.006Z,50.16
2023-04-30T12:49:30.262Z,49.88
2023-04-30T12:54:35.324Z,49.86
2023-04-30T12:59:57.071Z,50.78
2023-04-30T13:05:01.567Z,50.66
2023-04-30T13:10:08.098Z,51.69
2023-04-30T13:15:12.202Z,51.44
2023-04-30T13:20:19.801Z,51.91
2023-04-30T13:25:24.117Z,51.78
2023-04-30T13:30:28.176Z,51.55
2023-04-30T13:35:32.122Z,51.23
2023-04-30T13:40:36.098Z,51.67
2023-04-30T13:45:40.085Z,51.55
2023-04-30T13:50:44.093Z,51.63
2023-04-30T13:55:47.905Z,51.98
2023-04-30T14:00:52.335Z,52.33
2023-04-30T14:05:56.753Z,52.28
2023-04-30T14:11:01.059Z,52.48
2023-04-30T14:16:05.211Z,52.66
2023-04-30T14:21:09.072Z,52.72
2023-04-30T14:26:13.678Z,53.19
2023-04-30T14:31:17.612Z,52.95
2023-04-30T14:36:21.815Z,52.82
2023-04-30T14:41:26.592Z,53.61
2023-04-30T14:46:30.559Z,53.46
2023-04-30T14:51:34.587Z,53.52
2023-04-30T14:56:38.567Z,53.89
2023-04-30T15:01:43.469Z,54.47
2023-04-30T15:06:48.472Z,53.95
2023-04-30T15:11:52.608Z,54.67
2023-04-30T15:16:57.521Z,55.05
2023-04-30T15:22:01.894Z,55.44
2023-04-30T15:27:06.079Z,55.30
2023-04-30T15:32:09.920Z,55.85
2023-04-30T15:37:13.980Z,56.53
2023-04-30T15:42:17.734Z,57.05
2023-04-30T15:47:23.854Z,56.73
2023-04-30T15:52:28.168Z,56.81
2023-04-30T15:57:31.939Z,57.35
2023-04-30T16:02:36.898Z,57.10
2023-04-30T16:07:43.905Z,57.68
2023-04-30T16:12:48.639Z,58.27
2023-04-30T16:17:52.712Z,57.90
2023-04-30T16:22:57.844Z,58.22
2023-04-30T16:28:01.749Z,58.40
2023-04-30T16:33:06.260Z,58.60
2023-04-30T16:38:10.933Z,59.20
2023-04-30T16:43:15.069Z,59.05
2023-04-30T16:48:18.923Z,59.38
2023-04-30T16:53:23.045Z,58.97
2023-04-30T16:58:27.128Z,59.11
2023-04-30T17:03:35.695Z,59.56
2023-04-30T17:08:40.982Z,60.31
2023-04-30T17:13:44.885Z,60.43
2023-04-30T17:18:48.941Z,60.64
2023-04-30T17:23:53.009Z,60.77
2023-04-30T17:28:57.234Z,60.87
2023-04-30T17:34:01.069Z,61.86
2023-04-30T17:39:06.701Z,62.67
2023-04-30T17:44:10.499Z,62.88
2023-04-30T17:49:14.661Z,63.41
2023-04-30T17:54:18.615Z,63.74
2023-04-30T17:59:22.965Z,63.66
2023-04-30T18:04:27.042Z,63.94
2023-04-30T18:09:32.838Z,64.16
2023-04-30T18:14:36.853Z,64.00
2023-04-30T18:19:45.130Z,64.33
2023-04-30T18:24:48.989Z,64.64
2023-04-30T18:29:53.358Z,65.20
2023-04-30T18:34:57.825Z,65.26
2023-04-30T18:40:01.663Z,65.07
2023-04-30T18:45:09.859Z,65.38
2023-04-30T18:50:18.154Z,65.06
2023-04-30T18:55:21.940Z,65.11
2023-04-30T19:00:26.204Z,65.63
2023-04-30T19:05:30.039Z,65.35
2023-04-30T19:10:37.349Z,65.63
2023-04-30T19:15:44.636Z,65.80
2023-04-30T19:21:02.690Z,66.15
2023-04-30T19:26:06.727Z,66.30
2023-04-30T19:31:12.089Z,66.91
2023-04-30T19:36:16.319Z,66.81
2023-04-30T19:41:20.228Z,67.47
2023-04-30T19:46:24.291Z,67.45
2023-04-30T19:51:28.369Z,67.30
2023-04-30T19:56:32.857Z,68.36
2023-04-30T20:01:37.562Z,68.13
2023-04-30T20:06:41.576Z,68.45
2023-04-30T20:11:50.254Z,68.45
2023-04-30T20:16:54.804Z,68.33
2023-04-30T20:21:58.724Z,68.20
2023-04-30T20:27:04.901Z,68.25
2023-04-30T20:32:09.337Z,69.15
2023-04-30T20:37:13.464Z,68.37
2023-04-30T20:42:17.595Z,68.75
2023-04-30T20:47:21.672Z,68.72
2023-04-30T20:52:25.709Z,68.93
2023-04-30T20:57:29.777Z,69.07
2023-04-30T21:02:34.904Z,69.02
2023-04-30T21:07:39.004Z,69.09
2023-04-30T21:12:43.347Z,69.22
2023-04-30T21:17:47.302Z,69.29
2023-04-30T21:22:53.165Z,69.48
2023-04-30T21:27:57.704Z,68.90
2023-04-30T21:33:01.711Z,68.89
2023-04-30T21:38:05.950Z,69.62
2023-04-30T21:43:10.779Z,69.18
2023-04-30T21:48:14.858Z,69.54
2023-04-30T21:53:19.015Z,69.74
2023-04-30T21:58:23.017Z,69.79
2023-04-30T22:03:27.220Z,69.68
2023-04-30T22:08:31.330Z,69.70
2023-04-30T22:13:35.481Z,69.95
2023-04-30T22:18:40.334Z,70.63
2023-04-30T22:23:44.298Z,70.40
2023-04-30T22:28:48.229Z,70.29
2023-04-30T22:33:52.387Z,71.11
2023-04-30T22:38:57.075Z,70.83
2023-04-30T22:44:01.783Z,71.00
2023-04-30T22:49:05.977Z,70.83
2023-04-30T22:54:10.567Z,71.21
2023-04-30T22:59:14.606Z,70.85
2023-04-30T23:04:18.576Z,71.22
2023-04-30T23:09:22.651Z,71.47
2023-04-30T23:14:26.790Z,71.16
2023-04-30T23:19:30.575Z,71.17
2023-04-30T23:24:36.679Z,71.22
2023-04-30T23:29:40.765Z,71.58
2023-04-30T23:34:44.797Z,71.50
2023-04-30T23:39:48.648Z,71.08
2023-04-30T23:44:52.761Z,71.36
2023-04-30T23:49:57.259Z,71.48
2023-04-30T23:55:01.429Z,71.69
